createdAt,value
2018-11-21T00:00:24.224Z,3.57
2018-11-21T00:02:54.593Z,4.23
2018-11-21T00:05:24.379Z,5.33
2018-11-21T00:07:54.300Z,8.20
2018-11-21T00:10:24.201Z,4.47
2018-11-21T00:12:55.644Z,8.63
2018-11-21T00:15:25.698Z,11.93
2018-11-21T00:17:55.915Z,9.97
2018-11-21T00:20:25.864Z,5.27
2018-11-21T00:22:55.837Z,5.80
2018-11-21T00:25:25.924Z,5.77
2018-11-21T00:27:56.051Z,5.13
2018-11-21T00:30:25.844Z,10.20
2018-11-21T00:32:55.699Z,6.43
2018-11-21T00:35:25.726Z,6.63
2018-11-21T00:37:56.021Z,5.00
2018-11-21T00:40:25.651Z,5.17
2018-11-21T00:42:55.745Z,4.90
2018-11-21T00:45:25.671Z,5.67
2018-11-21T00:47:55.438Z,3.17
2018-11-21T00:50:25.185Z,5.40
2018-11-21T00:52:55.284Z,5.37
2018-11-21T00:55:25.344Z,4.77
2018-11-21T00:57:55.207Z,5.53
2018-11-21T01:00:25.538Z,4.05
2018-11-21T01:02:55.370Z,14.03
2018-11-21T01:05:25.281Z,3.80
2018-11-21T01:07:55.248Z,3.73
2018-11-21T01:10:25.243Z,4.23
2018-11-21T01:12:55.258Z,3.93
2018-11-21T01:15:25.097Z,4.87
2018-11-21T01:17:54.857Z,4.03
2018-11-21T01:20:24.833Z,4.97
2018-11-21T01:22:55.039Z,6.47
2018-11-21T01:25:25.219Z,5.70
2018-11-21T01:28:43.389Z,4.17
2018-11-21T01:31:13.444Z,5.30
2018-11-21T01:33:43.104Z,4.47
2018-11-21T01:36:12.924Z,7.33
2018-11-21T01:38:42.683Z,3.47
2018-11-21T01:41:13.104Z,6.57
2018-11-21T01:43:43.154Z,4.00
2018-11-21T01:46:12.963Z,4.33
2018-11-21T01:48:42.960Z,5.67
2018-11-21T01:51:12.804Z,4.73
2018-11-21T01:53:43.599Z,7.70
2018-11-21T01:56:13.454Z,5.87
2018-11-21T01:58:43.684Z,4.23
2018-11-21T02:01:13.634Z,3.90
2018-11-21T02:03:43.429Z,5.07
2018-11-21T02:06:13.309Z,4.47
2018-11-21T02:08:43.269Z,5.60
2018-11-21T02:11:13.354Z,8.63
2018-11-21T02:13:43.673Z,9.60
2018-11-21T02:16:13.430Z,13.97
2018-11-21T02:18:43.299Z,9.55
2018-11-21T02:21:13.770Z,5.30
2018-11-21T02:23:44.034Z,7.77
2018-11-21T02:26:13.805Z,8.20
2018-11-21T02:28:44.604Z,7.70
2018-11-21T02:31:14.554Z,5.57
2018-11-21T02:33:44.290Z,9.43
2018-11-21T02:36:14.294Z,7.67
2018-11-21T02:38:44.399Z,7.63
2018-11-21T02:41:14.379Z,5.50
2018-11-21T02:43:44.644Z,9.80
2018-11-21T02:46:14.905Z,8.47
2018-11-21T02:48:44.768Z,13.18
2018-11-21T02:51:15.011Z,12.10
2018-11-21T02:53:44.744Z,14.80
2018-11-21T02:56:14.714Z,5.80
2018-11-21T02:58:45.054Z,8.20
2018-11-21T03:01:15.209Z,7.10
2018-11-21T03:03:45.141Z,10.73
2018-11-21T03:06:15.163Z,6.97
2018-11-21T03:08:44.913Z,9.43
2018-11-21T03:11:14.905Z,6.40
2018-11-21T03:13:44.819Z,7.07
2018-11-21T03:16:14.905Z,10.47
2018-11-21T03:18:44.634Z,11.33
2018-11-21T03:21:14.788Z,11.67
2018-11-21T03:23:44.485Z,8.83
2018-11-21T03:26:14.233Z,17.70
2018-11-21T03:28:44.299Z,13.78
2018-11-21T03:31:14.099Z,9.13
2018-11-21T03:33:44.215Z,8.60
2018-11-21T03:36:14.164Z,5.47
2018-11-21T03:38:43.945Z,13.50
2018-11-21T03:41:13.749Z,12.37
2018-11-21T03:43:46.245Z,12.07
2018-11-21T03:46:16.349Z,5.87
2018-11-21T03:48:46.535Z,8.60
2018-11-21T03:51:16.169Z,17.73
2018-11-21T03:53:46.394Z,8.17
2018-11-21T03:56:16.268Z,13.37
2018-11-21T03:58:46.058Z,7.03
2018-11-21T04:01:16.734Z,7.97
2018-11-21T04:03:46.949Z,11.30
2018-11-21T04:06:16.792Z,14.37
2018-11-21T04:08:48.654Z,9.17
2018-11-21T04:11:18.769Z,9.60
2018-11-21T04:13:48.769Z,6.33
2018-11-21T04:16:18.749Z,14.40
2018-11-21T04:18:52.585Z,9.07
2018-11-21T04:21:22.519Z,8.23
2018-11-21T04:23:52.343Z,9.60
2018-11-21T04:26:25.175Z,24.23
2018-11-21T04:28:57.583Z,27.93
2018-11-21T04:31:27.848Z,23.53
2018-11-21T04:33:58.210Z,31.53
2018-11-21T04:36:28.364Z,29.33
2018-11-21T04:39:00.788Z,26.50
2018-11-21T04:41:31.004Z,24.13
2018-11-21T04:44:01.396Z,20.07
2018-11-21T04:46:31.150Z,19.27
2018-11-21T04:49:01.409Z,11.80
2018-11-21T04:51:31.303Z,17.80
2018-11-21T04:54:01.199Z,10.43
2018-11-21T04:56:31.089Z,12.33
2018-11-21T04:59:01.360Z,11.17
2018-11-21T05:01:31.379Z,8.30
2018-11-21T05:04:01.570Z,11.07
2018-11-21T05:06:31.655Z,11.93
2018-11-21T05:09:01.479Z,15.03
2018-11-21T05:11:31.479Z,18.40
2018-11-21T05:14:01.444Z,13.63
2018-11-21T05:16:31.633Z,22.27
2018-11-21T05:19:01.908Z,12.13
2018-11-21T05:21:32.079Z,16.65
2018-11-21T05:24:05.829Z,22.97
2018-11-21T05:26:35.984Z,16.73
2018-11-21T05:29:05.739Z,10.23
2018-11-21T05:31:35.810Z,21.23
2018-11-21T05:34:07.475Z,12.00
2018-11-21T05:36:37.209Z,17.23
2018-11-21T05:39:10.909Z,15.70
2018-11-21T05:41:41.049Z,18.82
2018-11-21T05:44:10.970Z,16.00
2018-11-21T05:46:40.883Z,16.10
2018-11-21T05:49:11.259Z,20.30
2018-11-21T05:51:41.137Z,16.48
2018-11-21T05:54:11.265Z,17.27
2018-11-21T05:56:41.164Z,15.87
2018-11-21T05:59:11.334Z,13.40
2018-11-21T06:01:41.509Z,25.80
2018-11-21T06:04:11.504Z,25.73
2018-11-21T06:06:42.447Z,28.85
2018-11-21T06:09:13.570Z,21.57
2018-11-21T06:11:44.110Z,12.50
2018-11-21T06:14:13.959Z,26.53
2018-11-21T06:16:43.784Z,15.68
2018-11-21T06:19:14.179Z,20.13
2018-11-21T06:21:44.017Z,16.17
2018-11-21T06:24:13.819Z,22.20
2018-11-21T06:26:43.749Z,16.13
2018-11-21T06:29:13.825Z,21.83
2018-11-21T06:31:43.580Z,16.93
2018-11-21T06:34:13.712Z,18.17
2018-11-21T06:36:43.619Z,20.20
2018-11-21T06:39:13.464Z,17.97
2018-11-21T06:41:43.561Z,10.47
2018-11-21T06:44:13.399Z,15.33
2018-11-21T06:46:43.964Z,7.80
2018-11-21T06:49:14.605Z,12.63
2018-11-21T06:51:44.619Z,10.00
2018-11-21T06:54:15.498Z,14.33
2018-11-21T06:56:45.434Z,13.37
2018-11-21T06:59:15.644Z,9.67
2018-11-21T07:01:45.825Z,7.80
2018-11-21T07:04:15.679Z,9.93
2018-11-21T07:06:45.564Z,7.20
2018-11-21T07:09:15.675Z,7.80
2018-11-21T07:11:46.888Z,4.33
2018-11-21T07:14:15.525Z,9.63
2018-11-21T07:16:45.365Z,16.93
2018-11-21T07:19:15.630Z,13.83
2018-11-21T07:21:45.454Z,12.13
2018-11-21T07:24:15.639Z,8.73
2018-11-21T07:26:45.749Z,8.43
2018-11-21T07:29:15.573Z,11.93
2018-11-21T07:31:45.393Z,6.07
2018-11-21T07:34:15.679Z,4.70
2018-11-21T07:36:54.708Z,9.20
2018-11-21T07:39:24.900Z,6.27
2018-11-21T07:41:55.425Z,5.20
2018-11-21T07:44:25.184Z,5.47
2018-11-21T07:46:55.359Z,4.30
2018-11-21T07:49:25.179Z,5.97
2018-11-21T07:51:55.345Z,7.47
2018-11-21T07:54:25.299Z,6.23
2018-11-21T07:57:47.244Z,10.93
2018-11-21T08:01:00.290Z,4.33
2018-11-21T08:03:32.161Z,4.67
2018-11-21T08:06:08.504Z,8.13
2018-11-21T08:08:55.674Z,4.53
2018-11-21T08:11:43.329Z,3.73
2018-11-21T08:14:30.494Z,3.50
2018-11-21T08:17:25.343Z,5.07
2018-11-21T08:20:19.984Z,5.00
2018-11-21T08:23:11.824Z,5.58
2018-11-21T08:26:04.629Z,9.30
2018-11-21T08:28:35.267Z,8.87
2018-11-21T08:31:12.414Z,4.07
2018-11-21T08:33:42.269Z,5.20
2018-11-21T08:36:12.464Z,6.97
2018-11-21T08:38:42.684Z,3.87
2018-11-21T08:41:12.935Z,4.67
2018-11-21T08:43:42.929Z,8.67
2018-11-21T08:46:13.280Z,4.93
2018-11-21T08:48:43.565Z,6.95
2018-11-21T08:51:13.739Z,7.97
2018-11-21T08:53:43.844Z,7.27
2018-11-21T08:56:13.645Z,6.03
2018-11-21T08:58:44.732Z,6.60
2018-11-21T09:01:14.715Z,5.37
2018-11-21T09:03:44.949Z,6.20
2018-11-21T09:06:15.015Z,4.43
2018-11-21T09:08:44.744Z,5.20
2018-11-21T09:11:15.114Z,6.53
2018-11-21T09:13:44.895Z,7.10
2018-11-21T09:16:15.244Z,4.50
2018-11-21T09:18:45.227Z,4.40
2018-11-21T09:21:15.143Z,10.23
2018-11-21T09:23:45.096Z,4.47
2018-11-21T09:26:14.859Z,13.37
2018-11-21T09:28:45.274Z,11.63
2018-11-21T09:31:15.174Z,7.97
2018-11-21T09:33:44.990Z,9.78
2018-11-21T09:36:15.040Z,11.57
2018-11-21T09:38:44.845Z,10.47
2018-11-21T09:41:14.679Z,7.43
2018-11-21T09:43:44.570Z,7.30
2018-11-21T09:46:17.279Z,6.33
2018-11-21T09:48:44.670Z,4.90
2018-11-21T09:51:17.849Z,9.43
2018-11-21T09:53:47.898Z,5.03
2018-11-21T09:56:17.950Z,7.37
2018-11-21T09:58:48.144Z,5.03
2018-11-21T10:01:54.444Z,7.30
2018-11-21T10:04:24.693Z,8.23
2018-11-21T10:06:54.492Z,8.93
2018-11-21T10:09:27.273Z,4.97
2018-11-21T10:11:57.509Z,6.60
2018-11-21T10:14:27.279Z,7.47
2018-11-21T10:16:57.271Z,7.90
2018-11-21T10:19:30.082Z,5.60
2018-11-21T10:21:59.948Z,12.33
2018-11-21T10:24:30.444Z,7.00
2018-11-21T10:27:00.509Z,10.07
2018-11-21T10:29:30.939Z,6.33
2018-11-21T10:32:00.904Z,5.07
2018-11-21T10:34:31.186Z,7.13
2018-11-21T10:37:01.305Z,6.07
2018-11-21T10:39:31.276Z,5.43
2018-11-21T10:42:01.280Z,4.30
2018-11-21T10:44:31.284Z,11.40
2018-11-21T10:47:02.999Z,6.37
2018-11-21T10:49:33.099Z,6.97
2018-11-21T10:52:02.914Z,5.30
2018-11-21T10:54:32.979Z,5.17
2018-11-21T10:57:03.441Z,4.47
2018-11-21T10:59:33.526Z,4.57
2018-11-21T11:02:20.739Z,13.70
2018-11-21T11:05:15.760Z,5.13
2018-11-21T11:08:08.334Z,6.90
2018-11-21T11:11:12.486Z,6.73
2018-11-21T11:14:07.489Z,3.10
2018-11-21T11:16:54.952Z,3.77
2018-11-21T11:19:54.134Z,7.63
2018-11-21T11:22:42.879Z,2.87
2018-11-21T11:25:46.795Z,3.90
2018-11-21T11:28:43.259Z,6.10
2018-11-21T11:31:44.236Z,5.97
2018-11-21T11:34:31.264Z,5.63
2018-11-21T11:37:22.699Z,3.53
2018-11-21T11:40:09.814Z,7.30
2018-11-21T11:42:58.997Z,4.23
2018-11-21T11:46:05.955Z,3.53
2018-11-21T11:48:58.491Z,4.87
2018-11-21T11:51:50.345Z,4.43
2018-11-21T11:54:42.328Z,5.30
2018-11-21T11:57:40.593Z,7.60
2018-11-21T12:00:21.324Z,4.43
2018-11-21T12:03:13.268Z,11.33
2018-11-21T12:06:00.460Z,5.97
2018-11-21T12:08:52.683Z,5.50
2018-11-21T12:11:59.141Z,9.87
2018-11-21T12:14:36.022Z,3.37
2018-11-21T12:17:25.549Z,5.93
2018-11-21T12:20:20.874Z,3.97
2018-11-21T12:23:08.444Z,6.20
2018-11-21T12:25:56.380Z,8.87
2018-11-21T12:28:40.812Z,5.37
2018-11-21T12:31:26.235Z,8.40
2018-11-21T12:34:14.349Z,7.03
2018-11-21T12:37:01.590Z,12.10
2018-11-21T12:39:50.553Z,6.17
2018-11-21T12:42:40.775Z,3.57
2018-11-21T12:45:42.025Z,9.33
2018-11-21T12:48:29.884Z,9.17
2018-11-21T12:51:18.998Z,7.10
2018-11-21T12:54:13.333Z,9.67
2018-11-21T12:57:17.483Z,14.70
2018-11-21T13:00:05.427Z,14.70
2018-11-21T13:02:56.948Z,7.47
2018-11-21T13:05:51.339Z,9.80
2018-11-21T13:08:42.449Z,14.13
2018-11-21T13:11:45.259Z,12.43
2018-11-21T13:14:42.811Z,14.73
2018-11-21T13:17:37.323Z,11.73
2018-11-21T13:20:45.239Z,13.70
2018-11-21T13:23:24.534Z,16.83
2018-11-21T13:26:19.099Z,13.77
2018-11-21T13:29:24.940Z,14.30
2018-11-21T13:32:16.699Z,14.33
2018-11-21T13:34:53.143Z,16.00
2018-11-21T13:37:50.893Z,18.80
2018-11-21T13:40:40.214Z,15.63
2018-11-21T13:43:39.438Z,16.73
2018-11-21T13:46:29.469Z,14.47
2018-11-21T13:49:18.839Z,17.20
2018-11-21T13:52:07.484Z,14.45
2018-11-21T13:55:02.464Z,14.07
2018-11-21T13:57:32.764Z,15.40
2018-11-21T14:00:03.564Z,13.77
2018-11-21T14:02:33.424Z,17.53
2018-11-21T14:05:03.324Z,16.50
2018-11-21T14:07:33.853Z,18.73
2018-11-21T14:10:04.179Z,14.53
2018-11-21T14:12:34.103Z,15.20
2018-11-21T14:15:04.053Z,15.90
2018-11-21T14:17:33.918Z,13.30
2018-11-21T14:20:04.009Z,13.57
2018-11-21T14:22:33.915Z,16.87
2018-11-21T14:25:04.234Z,13.53
2018-11-21T14:27:34.294Z,11.77
2018-11-21T14:30:05.001Z,10.30
2018-11-21T14:32:36.914Z,12.67
2018-11-21T14:35:10.178Z,14.97
2018-11-21T14:37:40.054Z,16.60
2018-11-21T14:40:12.714Z,16.03
2018-11-21T14:42:42.893Z,11.03
2018-11-21T14:45:14.739Z,13.03
2018-11-21T14:47:46.791Z,16.13
2018-11-21T14:50:25.604Z,12.13
2018-11-21T14:52:55.413Z,12.53
2018-11-21T14:55:25.488Z,11.68
2018-11-21T14:57:57.913Z,15.87
2018-11-21T15:00:28.331Z,13.03
2018-11-21T15:02:58.829Z,10.00
2018-11-21T15:05:28.743Z,11.97
2018-11-21T15:08:00.157Z,11.87
2018-11-21T15:10:30.804Z,12.93
2018-11-21T15:13:04.714Z,14.00
2018-11-21T15:15:34.724Z,15.87
2018-11-21T15:18:04.909Z,11.53
2018-11-21T15:20:34.809Z,10.47
2018-11-21T15:23:05.644Z,11.43
2018-11-21T15:25:36.273Z,14.00
2018-11-21T15:28:06.569Z,17.15
2018-11-21T15:30:36.509Z,10.63
2018-11-21T15:33:07.174Z,11.50
2018-11-21T15:35:37.534Z,12.63
2018-11-21T15:38:07.909Z,13.77
2018-11-21T15:40:39.368Z,14.00
2018-11-21T15:43:09.618Z,15.57
2018-11-21T15:45:40.052Z,15.73
2018-11-21T15:48:10.295Z,11.30
2018-11-21T15:50:40.514Z,14.40
2018-11-21T15:53:10.614Z,19.17
2018-11-21T15:55:40.649Z,17.50
2018-11-21T15:58:10.545Z,13.83
2018-11-21T16:00:40.649Z,14.67
2018-11-21T16:03:11.924Z,18.43
2018-11-21T16:05:41.798Z,23.97
2018-11-21T16:08:11.670Z,17.10
2018-11-21T16:10:43.339Z,22.13
2018-11-21T16:13:13.194Z,14.90
2018-11-21T16:15:51.082Z,16.93
2018-11-21T16:18:23.324Z,13.70
2018-11-21T16:20:53.191Z,18.17
2018-11-21T16:23:23.268Z,19.73
2018-11-21T16:25:53.019Z,13.62
2018-11-21T16:28:23.169Z,19.00
2018-11-21T16:30:53.146Z,16.90
2018-11-21T16:33:23.150Z,11.47
2018-11-21T16:35:53.315Z,19.95
2018-11-21T16:38:23.845Z,16.47
2018-11-21T16:40:54.179Z,15.20
2018-11-21T16:43:24.966Z,16.43
2018-11-21T16:45:56.844Z,23.87
2018-11-21T16:48:26.674Z,14.37
2018-11-21T16:50:56.489Z,21.53
2018-11-21T16:53:26.688Z,19.17
2018-11-21T16:55:58.828Z,16.50
2018-11-21T16:58:29.115Z,16.97
2018-11-21T17:00:59.594Z,22.70
2018-11-21T17:03:28.803Z,23.63
2018-11-21T17:05:59.079Z,19.10
2018-11-21T17:08:29.294Z,19.53
2018-11-21T17:10:59.519Z,14.73
2018-11-21T17:13:29.360Z,14.07
2018-11-21T17:15:59.657Z,22.27
2018-11-21T17:18:30.074Z,23.10
2018-11-21T17:20:59.880Z,19.27
2018-11-21T17:23:29.800Z,22.90
2018-11-21T17:25:59.889Z,25.90
2018-11-21T17:28:30.403Z,20.93
2018-11-21T17:31:00.333Z,24.47
2018-11-21T17:33:30.721Z,21.37
2018-11-21T17:36:00.540Z,24.23
2018-11-21T17:38:33.612Z,21.63
2018-11-21T17:41:00.596Z,26.87
2018-11-21T17:43:30.955Z,24.80
2018-11-21T17:46:04.080Z,28.07
2018-11-21T17:48:33.529Z,29.57
2018-11-21T17:51:04.597Z,23.40
2018-11-21T17:53:34.764Z,22.80
2018-11-21T17:56:04.558Z,20.00
2018-11-21T17:58:34.314Z,34.40
2018-11-21T18:01:04.415Z,23.53
2018-11-21T18:03:34.679Z,24.37
2018-11-21T18:06:04.894Z,26.03
2018-11-21T18:08:37.744Z,22.70
2018-11-21T18:11:07.721Z,24.50
2018-11-21T18:13:37.473Z,28.90
2018-11-21T18:16:07.988Z,30.10
2018-11-21T18:18:38.325Z,29.27
2018-11-21T18:21:08.155Z,29.73
2018-11-21T18:23:39.075Z,27.10
2018-11-21T18:26:08.933Z,26.83
2018-11-21T18:28:39.408Z,24.93
2018-11-21T18:31:09.575Z,27.53
2018-11-21T18:33:39.614Z,24.03
2018-11-21T18:36:09.648Z,32.23
2018-11-21T18:38:39.992Z,38.90
2018-11-21T18:41:11.360Z,25.70
2018-11-21T18:43:41.368Z,27.83
2018-11-21T18:46:11.181Z,23.50
2018-11-21T18:48:40.978Z,26.87
2018-11-21T18:51:11.169Z,27.73
2018-11-21T18:53:41.524Z,33.67
2018-11-21T18:56:35.908Z,31.47
2018-11-21T18:59:16.002Z,24.90
2018-11-21T19:01:46.782Z,30.57
2018-11-21T19:04:16.119Z,34.00
2018-11-21T19:06:46.303Z,27.87
2018-11-21T19:09:16.925Z,29.83
2018-11-21T19:11:46.750Z,35.67
2018-11-21T19:14:16.629Z,32.10
2018-11-21T19:16:46.524Z,30.20
2018-11-21T19:19:16.439Z,27.80
2018-11-21T19:21:46.720Z,33.53
2018-11-21T19:24:17.036Z,31.27
2018-11-21T19:26:47.694Z,28.87
2018-11-21T19:29:17.949Z,38.80
2018-11-21T19:31:47.964Z,39.67
2018-11-21T19:34:17.819Z,31.03
2018-11-21T19:36:48.094Z,25.60
2018-11-21T19:39:18.273Z,35.63
2018-11-21T19:41:48.269Z,28.60
2018-11-21T19:44:18.264Z,28.83
2018-11-21T19:46:48.490Z,30.03
2018-11-21T19:49:18.296Z,29.47
2018-11-21T19:51:48.609Z,25.97
2018-11-21T19:54:18.793Z,28.30
2018-11-21T19:56:48.954Z,25.93
2018-11-21T19:59:29.715Z,29.23
2018-11-21T20:01:59.550Z,27.83
2018-11-21T20:04:29.747Z,26.03
2018-11-21T20:06:59.585Z,24.73
2018-11-21T20:09:32.564Z,27.40
2018-11-21T20:12:02.853Z,28.97
2018-11-21T20:14:32.694Z,26.73
2018-11-21T20:17:03.041Z,27.27
2018-11-21T20:19:32.794Z,28.13
2018-11-21T20:22:02.745Z,27.67
2018-11-21T20:24:32.681Z,31.47
2018-11-21T20:27:02.648Z,25.70
2018-11-21T20:29:32.679Z,31.77
2018-11-21T20:32:03.526Z,29.07
2018-11-21T20:34:33.316Z,28.10
2018-11-21T20:37:03.319Z,26.52
2018-11-21T20:39:33.199Z,26.63
2018-11-21T20:42:03.349Z,25.82
2018-11-21T20:44:33.363Z,30.07
2018-11-21T20:47:03.814Z,32.07
2018-11-21T20:49:33.964Z,30.73
2018-11-21T20:52:06.933Z,28.50
2018-11-21T20:54:37.024Z,32.33
2018-11-21T20:57:07.285Z,29.93
2018-11-21T20:59:37.429Z,32.47
2018-11-21T21:02:07.339Z,27.73
2018-11-21T21:04:37.478Z,28.27
2018-11-21T21:07:07.590Z,33.47
2018-11-21T21:09:37.884Z,28.20
2018-11-21T21:12:08.884Z,29.37
2018-11-21T21:14:38.804Z,27.97
2018-11-21T21:17:08.744Z,30.30
2018-11-21T21:19:40.515Z,28.23
2018-11-21T21:22:10.405Z,31.07
2018-11-21T21:24:40.322Z,26.80
2018-11-21T21:27:10.254Z,30.17
2018-11-21T21:29:43.419Z,28.70
2018-11-21T21:32:13.393Z,30.33
2018-11-21T21:34:43.463Z,29.00
2018-11-21T21:37:13.386Z,26.33
2018-11-21T21:39:43.284Z,25.17
2018-11-21T21:42:13.224Z,27.73
2018-11-21T21:44:44.423Z,27.87
2018-11-21T21:47:14.968Z,29.07
2018-11-21T21:49:46.009Z,26.63
2018-11-21T21:52:15.933Z,25.80
2018-11-21T21:54:45.750Z,24.77
2018-11-21T21:57:15.704Z,33.57
2018-11-21T21:59:45.544Z,23.90
2018-11-21T22:02:15.839Z,25.87
2018-11-21T22:04:45.654Z,24.20
2018-11-21T22:07:15.744Z,29.67
2018-11-21T22:12:16.953Z,35.07
2018-11-21T22:14:47.012Z,24.20
2018-11-21T22:17:17.099Z,25.53
2018-11-21T22:19:46.990Z,27.03
2018-11-21T22:22:16.840Z,23.87
2018-11-21T22:24:46.945Z,31.00
2018-11-21T22:27:18.199Z,35.13
2018-11-21T22:29:48.024Z,27.17
2018-11-21T22:32:17.914Z,37.97
2018-11-21T22:34:48.179Z,27.90
2018-11-21T22:37:18.039Z,34.83
2018-11-21T22:39:47.871Z,35.20
2018-11-21T22:42:18.124Z,35.33
2018-11-21T22:44:48.174Z,33.37
2018-11-21T22:47:21.674Z,31.27
2018-11-21T22:49:51.895Z,33.50
2018-11-21T22:52:21.749Z,35.47
2018-11-21T22:54:51.783Z,38.50
2018-11-21T22:57:21.874Z,36.23
2018-11-21T22:59:51.705Z,36.43
2018-11-21T23:02:21.655Z,35.23
2018-11-21T23:04:51.493Z,38.73
2018-11-21T23:07:21.465Z,34.17
2018-11-21T23:09:51.764Z,33.87
2018-11-21T23:12:21.564Z,37.40
2018-11-21T23:14:52.161Z,40.70
2018-11-21T23:17:21.989Z,34.40
2018-11-21T23:19:52.249Z,35.77
2018-11-21T23:22:22.024Z,40.70
2018-11-21T23:24:51.949Z,38.90
2018-11-21T23:27:22.029Z,40.40
2018-11-21T23:29:52.695Z,45.27
2018-11-21T23:32:22.649Z,39.60
2018-11-21T23:34:52.939Z,36.60
2018-11-21T23:37:22.989Z,36.53
2018-11-21T23:39:53.004Z,44.70
2018-11-21T23:42:22.789Z,40.57
2018-11-21T23:44:52.870Z,45.80
2018-11-21T23:47:23.259Z,40.33
2018-11-21T23:49:53.044Z,33.00
2018-11-21T23:52:24.624Z,47.40
2018-11-21T23:54:54.804Z,37.23
2018-11-21T23:57:24.943Z,37.60
2018-11-21T23:59:54.655Z,40.67
